North Park, Indiana
Current Conditions -  °F | °C
As of 8:54 AM on Sunday 21 Dec 2014 (Local Time) from KEVV Reporting Station
Haze Haze  
Wind Chill: -3°   Ceiling: Unl
Heat Index: -1°   Visibility: 4mi
Dew Point: -3°   Wind: 5mph
Humidity: 85%   Direction: 90°E
Pressure: 30.29"   Gusts: NA
Location:  38.0194°N, 87.5754°W
Report Text: KEVV 211454Z 09004KT 4SM BR CLR M01/M03 A3029 RMK AO2 SLP261 T10061028 58001
Loading
Personal Weather Stations






























Interactive Weather Map New forecast layout! Learn more

10-Day Weather Forecast

Advertisements
Track Severe Weather on mobile